createdAt,value
2022-12-01T00:01:29.507Z,-1.59
2022-12-01T00:03:58.942Z,-1.64
2022-12-01T00:06:26.933Z,-1.64
2022-12-01T00:09:18.000Z,-1.68
2022-12-01T00:11:47.824Z,-1.75
2022-12-01T00:14:16.391Z,-1.74
2022-12-01T00:16:45.031Z,-2.12
2022-12-01T00:19:14.734Z,-1.76
2022-12-01T00:21:42.664Z,-2.08
2022-12-01T00:24:11.644Z,-1.80
2022-12-01T00:26:40.400Z,-1.75
2022-12-01T00:29:08.350Z,-1.65
2022-12-01T00:31:36.597Z,-1.80
2022-12-01T00:34:09.464Z,-1.67
2022-12-01T00:36:40.472Z,-1.51
2022-12-01T00:39:08.825Z,-1.61
2022-12-01T00:41:36.686Z,-1.64
2022-12-01T00:44:04.674Z,-1.78
2022-12-01T00:46:32.973Z,-1.57
2022-12-01T00:49:00.971Z,-1.65
2022-12-01T00:51:29.077Z,-1.57
2022-12-01T00:53:58.725Z,-1.75
2022-12-01T00:56:26.678Z,-1.53
2022-12-01T00:58:54.733Z,-1.48
2022-12-01T01:01:22.958Z,-1.80
2022-12-01T01:03:51.031Z,-1.40
2022-12-01T01:06:19.018Z,-1.46
2022-12-01T01:08:47.147Z,-1.36
2022-12-01T01:11:16.425Z,-1.37
2022-12-01T01:13:44.401Z,-1.57
2022-12-01T01:16:18.573Z,-1.52
2022-12-01T01:18:46.786Z,-1.41
2022-12-01T01:21:17.188Z,-1.23
2022-12-01T01:23:45.143Z,-1.20
2022-12-01T01:26:16.061Z,-1.43
2022-12-01T01:28:45.971Z,-1.30
2022-12-01T01:31:15.924Z,-1.05
2022-12-01T01:33:44.067Z,-1.01
2022-12-01T01:36:12.540Z,-0.79
2022-12-01T01:38:40.458Z,-0.66
2022-12-01T01:41:08.872Z,-0.68
2022-12-01T01:43:47.276Z,-0.56
2022-12-01T01:46:17.756Z,-0.82
2022-12-01T01:48:50.823Z,-0.84
2022-12-01T01:51:23.887Z,-0.85
2022-12-01T01:53:55.865Z,-1.12
2022-12-01T01:56:24.806Z,-1.07
2022-12-01T01:58:54.662Z,-1.14
2022-12-01T02:01:23.047Z,-0.72
2022-12-01T02:03:53.650Z,-0.88
2022-12-01T02:06:29.348Z,-1.24
2022-12-01T02:08:57.338Z,-0.96
2022-12-01T02:12:01.308Z,-0.94
2022-12-01T02:14:45.321Z,-0.66
2022-12-01T02:17:27.184Z,-1.02
2022-12-01T02:20:24.512Z,-0.93
2022-12-01T02:23:12.945Z,-0.99
2022-12-01T02:25:50.135Z,-0.54
2022-12-01T02:28:49.684Z,-0.55
2022-12-01T02:31:24.668Z,-0.78
2022-12-01T02:33:57.704Z,-0.96
2022-12-01T02:36:35.651Z,-1.09
2022-12-01T02:39:09.945Z,-1.26
2022-12-01T02:41:43.147Z,-0.98
2022-12-01T02:44:19.356Z,-1.20
2022-12-01T02:46:55.358Z,-1.04
2022-12-01T02:49:28.337Z,-1.02
2022-12-01T02:51:58.445Z,-1.03
2022-12-01T02:54:31.099Z,-1.01
2022-12-01T02:56:58.985Z,-0.98
2022-12-01T02:59:27.061Z,-1.31
2022-12-01T03:02:06.129Z,-1.04
2022-12-01T03:04:58.136Z,-1.07
2022-12-01T03:07:46.358Z,-1.06
2022-12-01T03:10:21.078Z,-1.30
2022-12-01T03:13:00.580Z,-1.22
2022-12-01T03:15:37.134Z,-1.12
2022-12-01T03:18:22.681Z,-1.14
2022-12-01T03:20:58.365Z,-0.90
2022-12-01T03:23:31.364Z,-1.01
2022-12-01T03:26:02.826Z,-1.07
2022-12-01T03:28:34.542Z,-1.04
2022-12-01T03:31:07.986Z,-0.93
2022-12-01T03:33:44.528Z,-0.95
2022-12-01T03:36:18.212Z,-1.38
2022-12-01T03:38:51.113Z,-1.36
2022-12-01T03:41:26.331Z,-1.12
2022-12-01T03:44:04.430Z,-1.10
2022-12-01T03:46:42.537Z,-1.30
2022-12-01T03:49:12.335Z,-1.11
2022-12-01T03:51:49.411Z,-1.09
2022-12-01T03:54:24.185Z,-0.93
2022-12-01T03:56:57.550Z,-0.83
2022-12-01T03:59:27.672Z,-1.15
2022-12-01T04:01:55.796Z,-1.06
2022-12-01T04:04:25.189Z,-1.13
2022-12-01T04:06:53.176Z,-0.92
2022-12-01T04:09:21.482Z,-1.00
2022-12-01T04:12:06.818Z,-0.81
2022-12-01T04:14:34.805Z,-1.10
2022-12-01T04:17:02.801Z,-1.10
2022-12-01T04:19:32.288Z,-1.27
2022-12-01T04:22:00.140Z,-1.16
2022-12-01T04:24:28.133Z,-1.11
2022-12-01T04:26:56.219Z,-1.14
2022-12-01T04:29:24.145Z,-1.15
2022-12-01T04:31:52.197Z,-1.21
2022-12-01T04:34:20.313Z,-1.34
2022-12-01T04:36:49.610Z,-1.31
2022-12-01T04:39:17.797Z,-1.42
2022-12-01T04:41:45.953Z,-1.15
2022-12-01T04:44:14.321Z,-1.25
2022-12-01T04:46:42.432Z,-1.79
2022-12-01T04:49:10.915Z,-1.44
2022-12-01T04:51:38.794Z,-1.13
2022-12-01T04:54:08.301Z,-1.19
2022-12-01T04:56:36.277Z,-1.42
2022-12-01T04:59:04.201Z,-1.46
2022-12-01T05:01:32.213Z,-1.47
2022-12-01T05:04:00.451Z,-1.80
2022-12-01T05:06:29.682Z,-1.79
2022-12-01T05:08:59.829Z,-1.66
2022-12-01T05:11:31.124Z,-1.66
2022-12-01T05:13:59.759Z,-1.99
2022-12-01T05:16:29.892Z,-1.53
2022-12-01T05:19:13.497Z,-1.58
2022-12-01T05:21:41.744Z,-1.33
2022-12-01T05:24:10.787Z,-1.28
2022-12-01T05:26:40.585Z,-1.12
2022-12-01T05:29:09.273Z,-1.04
2022-12-01T05:31:37.240Z,-1.17
2022-12-01T05:34:05.342Z,-1.28
2022-12-01T05:36:33.739Z,-1.41
2022-12-01T05:39:01.844Z,-1.26
2022-12-01T05:41:29.962Z,-1.25
2022-12-01T05:43:59.392Z,-1.18
2022-12-01T05:46:27.449Z,-1.01
2022-12-01T05:49:19.914Z,-1.18
2022-12-01T05:51:47.883Z,-1.19
2022-12-01T05:54:16.309Z,-1.32
2022-12-01T05:56:44.291Z,-1.35
2022-12-01T05:59:13.574Z,-1.36
2022-12-01T06:01:41.667Z,-1.46
2022-12-01T06:04:09.931Z,-1.51
2022-12-01T06:06:38.023Z,-1.52
2022-12-01T06:09:06.111Z,-1.56
2022-12-01T06:11:34.003Z,-1.52
2022-12-01T06:14:02.045Z,-1.50
2022-12-01T06:16:31.523Z,-1.79
2022-12-01T06:18:59.430Z,-1.55
2022-12-01T06:21:27.423Z,-1.58
2022-12-01T06:23:55.708Z,-1.50
2022-12-01T06:26:23.681Z,-1.47
2022-12-01T06:28:51.653Z,-1.44
2022-12-01T06:31:19.628Z,-1.50
2022-12-01T06:33:49.028Z,-1.49
2022-12-01T06:36:17.062Z,-1.47
2022-12-01T06:38:45.136Z,-1.47
2022-12-01T06:41:13.012Z,-1.27
2022-12-01T06:43:40.945Z,-1.41
2022-12-01T06:46:08.954Z,-1.12
2022-12-01T06:48:37.061Z,-1.03
2022-12-01T06:51:11.014Z,-0.84
2022-12-01T06:53:39.189Z,-1.08
2022-12-01T06:56:07.472Z,-0.91
2022-12-01T06:58:35.853Z,-1.42
2022-12-01T07:01:34.399Z,-1.19
2022-12-01T07:04:02.420Z,-1.05
2022-12-01T07:06:32.601Z,-1.04
2022-12-01T07:09:00.548Z,-1.30
2022-12-01T07:11:28.715Z,-1.04
2022-12-01T07:13:57.510Z,-0.55
2022-12-01T07:16:25.707Z,-0.96
2022-12-01T07:18:53.867Z,-1.16
2022-12-01T07:21:22.081Z,-1.07
2022-12-01T07:23:51.371Z,-1.59
2022-12-01T07:26:19.985Z,-1.34
2022-12-01T07:28:47.985Z,-1.54
2022-12-01T07:31:17.508Z,-1.33
2022-12-01T07:33:45.781Z,-1.34
2022-12-01T07:36:14.369Z,-1.43
2022-12-01T07:38:42.784Z,-1.50
2022-12-01T07:41:13.959Z,-1.31
2022-12-01T07:43:42.516Z,-1.52
2022-12-01T07:46:15.747Z,-1.51
2022-12-01T07:48:47.357Z,-1.53
2022-12-01T07:51:17.211Z,-1.57
2022-12-01T07:53:45.599Z,-1.53
2022-12-01T07:56:15.497Z,-1.53
2022-12-01T07:58:43.846Z,-1.51
2022-12-01T08:01:14.844Z,-1.40
2022-12-01T08:03:43.638Z,-1.34
2022-12-01T08:06:12.390Z,-1.25
2022-12-01T08:08:42.138Z,-1.14
2022-12-01T08:11:13.286Z,-1.48
2022-12-01T08:13:43.097Z,-1.28
2022-12-01T08:16:13.620Z,-1.54
2022-12-01T08:18:42.894Z,-1.12
2022-12-01T08:21:13.514Z,-1.13
2022-12-01T08:23:42.141Z,-1.20
2022-12-01T08:26:14.018Z,-1.23
2022-12-01T08:28:43.777Z,-1.16
2022-12-01T08:31:14.189Z,-1.10
2022-12-01T08:33:42.024Z,-1.14
2022-12-01T08:36:10.220Z,-1.14
2022-12-01T08:38:38.242Z,-1.11
2022-12-01T08:41:08.469Z,-1.18
2022-12-01T08:46:30.724Z,-1.51
2022-12-01T08:48:58.726Z,-1.20
2022-12-01T08:51:27.518Z,-1.23
2022-12-01T08:53:57.246Z,-1.37
2022-12-01T08:56:27.645Z,-1.00
2022-12-01T08:58:56.476Z,-0.92
2022-12-01T09:01:25.980Z,-1.10
2022-12-01T09:04:06.661Z,-0.64
2022-12-01T09:06:35.911Z,-0.87
2022-12-01T09:09:04.004Z,-0.87
2022-12-01T09:11:32.037Z,-0.87
2022-12-01T09:14:00.800Z,-0.89
2022-12-01T09:16:28.863Z,-0.85
2022-12-01T09:18:58.636Z,-0.82
2022-12-01T09:21:28.578Z,-0.83
2022-12-01T09:23:56.623Z,-0.96
2022-12-01T09:26:25.112Z,-0.58
2022-12-01T09:28:55.717Z,-0.29
2022-12-01T09:31:24.556Z,-0.48
2022-12-01T09:33:56.826Z,-0.67
2022-12-01T09:36:26.954Z,-0.54
2022-12-01T09:38:54.991Z,-0.47
2022-12-01T09:41:26.411Z,-0.64
2022-12-01T09:44:02.590Z,-0.67
2022-12-01T09:46:36.116Z,-0.75
2022-12-01T09:49:05.024Z,-0.70
2022-12-01T09:51:36.354Z,-0.56
2022-12-01T09:54:04.978Z,-0.52
2022-12-01T09:56:36.492Z,-0.93
2022-12-01T09:59:09.033Z,-0.55
2022-12-01T10:01:40.139Z,-0.51
2022-12-01T10:04:13.180Z,-0.52
2022-12-01T10:06:50.561Z,-0.35
2022-12-01T10:09:24.605Z,-0.09
2022-12-01T10:11:56.157Z,-0.30
2022-12-01T10:14:24.032Z,-0.38
2022-12-01T10:17:00.105Z,-0.58
2022-12-01T10:19:37.971Z,-0.61
2022-12-01T10:22:36.293Z,-0.32
2022-12-01T10:25:15.691Z,-0.09
2022-12-01T10:27:52.247Z,-0.25
2022-12-01T10:30:23.757Z,-0.60
2022-12-01T10:32:54.468Z,-0.38
2022-12-01T10:35:25.634Z,-0.61
2022-12-01T10:38:00.563Z,-0.43
2022-12-01T10:40:34.570Z,-0.48
2022-12-01T10:43:03.581Z,-0.55
2022-12-01T10:45:35.403Z,-0.40
2022-12-01T10:48:15.411Z,-0.39
2022-12-01T10:50:44.872Z,-0.65
2022-12-01T10:53:32.726Z,-0.57
2022-12-01T10:56:09.848Z,-0.32
2022-12-01T10:58:45.094Z,-0.55
2022-12-01T11:01:19.868Z,-0.26
2022-12-01T11:03:53.791Z,-0.09
2022-12-01T11:06:23.994Z,0.04
2022-12-01T11:08:58.437Z,-0.03
2022-12-01T11:11:33.996Z,-0.10
2022-12-01T11:14:04.720Z,-0.34
2022-12-01T11:16:37.789Z,-0.15
2022-12-01T11:19:11.244Z,-0.24
2022-12-01T11:21:47.719Z,-0.31
2022-12-01T11:24:30.166Z,-0.42
2022-12-01T11:26:59.522Z,-0.52
2022-12-01T11:29:35.636Z,-0.51
2022-12-01T11:32:17.757Z,-0.59
2022-12-01T11:34:51.520Z,-0.66
2022-12-01T11:37:22.384Z,-0.34
2022-12-01T11:39:53.331Z,-0.41
2022-12-01T11:42:25.817Z,-0.48
2022-12-01T11:44:56.814Z,-0.62
2022-12-01T11:47:26.880Z,-0.45
2022-12-01T11:49:56.721Z,-0.27
2022-12-01T11:52:28.469Z,-0.05
2022-12-01T11:55:01.519Z,-0.48
2022-12-01T12:00:23.069Z,-0.29
2022-12-01T12:03:09.257Z,-0.22
2022-12-01T12:05:50.425Z,-0.23
2022-12-01T12:08:32.667Z,-0.48
2022-12-01T12:11:13.319Z,-0.24
2022-12-01T12:14:04.983Z,-0.17
2022-12-01T12:16:46.232Z,-0.10
2022-12-01T12:19:39.282Z,0.12
2022-12-01T12:22:24.834Z,-0.02
2022-12-01T12:25:07.072Z,0.03
2022-12-01T12:27:49.439Z,-0.15
2022-12-01T12:30:23.141Z,-0.23
2022-12-01T12:33:16.897Z,-0.19
2022-12-01T12:35:53.324Z,-0.21
2022-12-01T12:38:46.295Z,-0.33
2022-12-01T12:41:29.739Z,-0.30
2022-12-01T12:44:12.109Z,-0.11
2022-12-01T12:46:50.877Z,-0.23
2022-12-01T12:49:30.394Z,-0.16
2022-12-01T12:52:08.279Z,-0.09
2022-12-01T12:54:46.456Z,-0.23
2022-12-01T12:57:22.444Z,-0.51
2022-12-01T12:59:59.081Z,-0.35
2022-12-01T13:02:34.586Z,-0.28
2022-12-01T13:05:10.134Z,-0.19
2022-12-01T13:07:44.216Z,-0.13
2022-12-01T13:10:26.001Z,-0.04
2022-12-01T13:13:00.103Z,-0.13
2022-12-01T13:15:31.874Z,-0.10
2022-12-01T13:18:05.789Z,-0.13
2022-12-01T13:20:35.485Z,-0.36
2022-12-01T13:23:04.592Z,-0.20
2022-12-01T13:25:38.297Z,-0.51
2022-12-01T13:28:08.308Z,-0.74
2022-12-01T13:30:37.990Z,-0.38
2022-12-01T13:33:08.154Z,-0.66
2022-12-01T13:35:38.494Z,-0.34
2022-12-01T13:38:23.095Z,-0.62
2022-12-01T13:41:12.267Z,-0.58
2022-12-01T13:43:53.530Z,-0.64
2022-12-01T13:46:28.313Z,-0.54
2022-12-01T13:48:59.973Z,-0.48
2022-12-01T13:52:08.447Z,-0.35
2022-12-01T13:54:38.722Z,-0.27
2022-12-01T13:57:13.246Z,-0.34
2022-12-01T14:00:07.935Z,-0.10
2022-12-01T14:02:40.661Z,-0.03
2022-12-01T14:05:46.025Z,0.01
2022-12-01T14:08:22.607Z,-0.21
2022-12-01T14:10:58.485Z,-0.46
2022-12-01T14:13:27.912Z,-0.46
2022-12-01T14:15:58.745Z,-0.55
2022-12-01T14:18:36.530Z,-0.60
2022-12-01T14:21:07.664Z,-0.20
2022-12-01T14:23:38.276Z,-0.46
2022-12-01T14:26:19.644Z,-0.24
2022-12-01T14:29:24.894Z,-0.11
2022-12-01T14:32:26.453Z,-0.30
2022-12-01T14:35:01.099Z,-0.35
2022-12-01T14:37:38.504Z,-0.19
2022-12-01T14:40:12.794Z,0.00
2022-12-01T14:43:03.005Z,0.07
2022-12-01T14:45:36.636Z,0.20
2022-12-01T14:48:06.943Z,0.12
2022-12-01T14:50:46.380Z,0.04
2022-12-01T14:53:24.466Z,0.20
2022-12-01T14:55:56.456Z,-0.29
2022-12-01T14:58:29.653Z,0.04
2022-12-01T15:01:08.527Z,0.29
2022-12-01T15:03:40.938Z,-0.16
2022-12-01T15:06:09.733Z,-0.11
2022-12-01T15:08:43.533Z,-0.08
2022-12-01T15:11:23.468Z,0.01
2022-12-01T15:13:54.877Z,0.23
2022-12-01T15:16:26.687Z,0.13
2022-12-01T15:18:54.707Z,-0.10
2022-12-01T15:21:25.939Z,-0.17
2022-12-01T15:23:59.072Z,0.06
2022-12-01T15:26:30.375Z,0.19
2022-12-01T15:29:16.830Z,-0.03
2022-12-01T15:31:47.637Z,-0.24
2022-12-01T15:34:19.629Z,0.15
2022-12-01T15:36:49.403Z,0.06
2022-12-01T15:39:19.234Z,0.21
2022-12-01T15:41:49.202Z,-0.19
2022-12-01T15:44:23.161Z,0.09
2022-12-01T15:46:51.419Z,-0.17
2022-12-01T15:49:22.157Z,-0.24
2022-12-01T15:51:51.537Z,0.00
2022-12-01T15:54:23.804Z,-0.02
2022-12-01T15:56:54.906Z,-0.22
2022-12-01T15:59:32.575Z,-0.05
2022-12-01T16:02:01.336Z,-0.07
2022-12-01T16:04:32.435Z,0.02
2022-12-01T16:07:03.209Z,-0.39
2022-12-01T16:09:35.358Z,-0.34
2022-12-01T16:12:08.668Z,-0.45
2022-12-01T16:14:38.188Z,-0.21
2022-12-01T16:17:11.252Z,-0.34
2022-12-01T16:19:43.399Z,0.02
2022-12-01T16:22:17.655Z,0.06
2022-12-01T16:24:49.885Z,0.24
2022-12-01T16:27:22.399Z,0.06
2022-12-01T16:29:53.804Z,-0.11
2022-12-01T16:32:24.608Z,0.02
2022-12-01T16:34:54.171Z,0.14
2022-12-01T16:37:22.632Z,0.07
2022-12-01T16:39:51.549Z,0.04
2022-12-01T16:42:21.722Z,0.23
2022-12-01T16:44:52.260Z,0.18
2022-12-01T16:47:22.878Z,0.11
2022-12-01T16:49:51.256Z,-0.28
2022-12-01T16:55:23.849Z,0.14
2022-12-01T16:57:51.920Z,0.11
2022-12-01T17:00:22.351Z,0.21
2022-12-01T17:02:50.346Z,0.21
2022-12-01T17:05:18.486Z,0.07
2022-12-01T17:07:46.549Z,0.45
2022-12-01T17:10:14.796Z,0.20
2022-12-01T17:12:42.901Z,0.58
2022-12-01T17:15:12.232Z,0.24
2022-12-01T17:17:41.578Z,0.49
2022-12-01T17:20:10.580Z,0.28
2022-12-01T17:22:39.192Z,0.40
2022-12-01T17:25:09.652Z,0.39
2022-12-01T17:27:37.824Z,0.16
2022-12-01T17:30:07.185Z,-0.09
2022-12-01T17:32:35.143Z,0.17
2022-12-01T17:35:04.983Z,0.05
2022-12-01T17:37:32.908Z,-0.17
2022-12-01T17:40:00.803Z,-0.40
2022-12-01T17:42:31.386Z,-0.17
2022-12-01T17:44:59.273Z,0.03
2022-12-01T17:47:27.500Z,0.02
2022-12-01T17:49:55.923Z,-0.30
2022-12-01T17:52:28.415Z,-0.64
2022-12-01T17:54:57.024Z,-0.12
2022-12-01T17:57:25.153Z,-0.21
2022-12-01T17:59:53.087Z,-0.17
2022-12-01T18:02:21.374Z,-0.22
2022-12-01T18:04:49.925Z,-0.25
2022-12-01T18:07:18.126Z,-0.05
2022-12-01T18:09:47.611Z,-0.51
2022-12-01T18:12:15.472Z,-0.50
2022-12-01T18:14:44.676Z,-0.56
2022-12-01T18:17:12.714Z,-0.54
2022-12-01T18:19:40.630Z,-0.57
2022-12-01T18:22:08.534Z,-0.52
2022-12-01T18:24:36.832Z,-0.63
2022-12-01T18:27:06.468Z,-0.58
2022-12-01T18:29:34.972Z,-0.38
2022-12-01T18:32:03.205Z,-0.52
2022-12-01T18:34:31.331Z,-0.48
2022-12-01T18:36:59.733Z,-0.81
2022-12-01T18:39:27.890Z,-1.33
2022-12-01T18:41:56.368Z,-1.03
2022-12-01T18:44:25.680Z,-1.13
2022-12-01T18:46:53.932Z,-1.26
2022-12-01T18:49:22.004Z,-1.24
2022-12-01T18:51:49.934Z,-1.16
2022-12-01T18:54:18.363Z,-1.24
2022-12-01T18:56:46.477Z,-0.88
2022-12-01T18:59:16.899Z,-0.88
2022-12-01T19:01:47.702Z,-0.82
2022-12-01T19:04:16.838Z,-0.44
2022-12-01T19:06:46.075Z,-0.60
2022-12-01T19:09:15.625Z,-0.66
2022-12-01T19:11:43.900Z,-0.57
2022-12-01T19:14:15.557Z,-0.74
2022-12-01T19:16:43.654Z,-1.07
2022-12-01T19:19:13.141Z,-0.91
2022-12-01T19:21:41.579Z,-0.75
2022-12-01T19:24:09.970Z,-0.82
2022-12-01T19:26:37.962Z,-0.76
2022-12-01T19:29:05.911Z,-0.34
2022-12-01T19:31:34.045Z,-0.27
2022-12-01T19:34:03.706Z,-0.32
2022-12-01T19:36:33.337Z,-0.56
2022-12-01T19:39:04.374Z,-0.53
2022-12-01T19:41:35.299Z,-0.50
2022-12-01T19:44:03.321Z,-0.27
2022-12-01T19:46:31.253Z,-0.54
2022-12-01T19:49:01.247Z,-0.10
2022-12-01T19:51:30.717Z,-0.13
2022-12-01T19:54:00.173Z,-0.08
2022-12-01T19:56:29.344Z,-0.23
2022-12-01T19:58:58.178Z,0.26
2022-12-01T20:01:27.028Z,0.20
2022-12-01T20:03:55.925Z,-0.10
2022-12-01T20:06:26.682Z,0.34
2022-12-01T20:08:56.653Z,0.17
2022-12-01T20:11:26.313Z,0.15
2022-12-01T20:13:54.720Z,-0.11
2022-12-01T20:16:25.269Z,0.20
2022-12-01T20:18:54.444Z,0.24
2022-12-01T20:21:25.443Z,0.47
2022-12-01T20:23:58.081Z,0.25
2022-12-01T20:26:30.842Z,0.35
2022-12-01T20:29:01.590Z,0.36
2022-12-01T20:31:31.135Z,0.30
2022-12-01T20:34:00.758Z,0.14
2022-12-01T20:36:29.428Z,0.24
2022-12-01T20:38:57.572Z,0.51
2022-12-01T20:41:27.025Z,0.29
2022-12-01T20:43:54.902Z,0.54
2022-12-01T20:46:23.216Z,0.37
2022-12-01T20:48:51.149Z,0.47
2022-12-01T20:51:19.358Z,0.65
2022-12-01T20:54:12.377Z,0.71
2022-12-01T20:56:36.684Z,0.56
2022-12-01T20:59:05.638Z,0.49
2022-12-01T21:01:33.708Z,0.32
2022-12-01T21:04:01.697Z,0.42
2022-12-01T21:07:02.654Z,0.76
2022-12-01T21:09:30.733Z,0.60
2022-12-01T21:12:18.139Z,0.78
2022-12-01T21:14:49.158Z,0.82
2022-12-01T21:17:33.045Z,0.61
2022-12-01T21:20:07.277Z,0.26
2022-12-01T21:22:35.360Z,0.70
2022-12-01T21:25:08.038Z,0.77
2022-12-01T21:27:37.496Z,0.68
2022-12-01T21:30:15.417Z,0.79
2022-12-01T21:32:44.626Z,0.60
2022-12-01T21:35:18.235Z,0.44
2022-12-01T21:37:46.995Z,0.75
2022-12-01T21:40:20.807Z,0.49
2022-12-01T21:42:50.117Z,0.51
2022-12-01T21:45:20.529Z,0.81
2022-12-01T21:47:48.311Z,0.70
2022-12-01T21:50:21.257Z,0.15
2022-12-01T21:52:49.911Z,0.21
2022-12-01T21:55:36.223Z,0.66
2022-12-01T21:58:19.517Z,0.28
2022-12-01T22:00:47.496Z,0.55
2022-12-01T22:03:33.676Z,0.50
2022-12-01T22:06:29.732Z,0.71
2022-12-01T22:08:56.227Z,0.66
2022-12-01T22:11:25.477Z,0.81
2022-12-01T22:14:02.458Z,0.77
2022-12-01T22:16:32.149Z,0.80
2022-12-01T22:19:02.125Z,0.60
2022-12-01T22:21:34.680Z,0.25
2022-12-01T22:24:16.247Z,-0.08
2022-12-01T22:26:48.197Z,-0.05
2022-12-01T22:29:28.385Z,0.19
2022-12-01T22:32:27.745Z,0.31
2022-12-01T22:34:58.792Z,0.42
2022-12-01T22:37:37.530Z,0.75
2022-12-01T22:40:41.562Z,0.51
2022-12-01T22:43:48.918Z,0.21
2022-12-01T22:46:24.008Z,0.39
2022-12-01T22:48:54.053Z,0.38
2022-12-01T22:51:27.721Z,0.21
2022-12-01T22:54:01.336Z,0.39
2022-12-01T22:56:33.114Z,0.08
2022-12-01T22:59:01.353Z,0.18
2022-12-01T23:01:33.361Z,0.14
2022-12-01T23:04:21.522Z,0.22
2022-12-01T23:06:58.445Z,0.25
2022-12-01T23:09:30.381Z,0.09
2022-12-01T23:12:02.033Z,0.43
2022-12-01T23:14:30.095Z,0.58
2022-12-01T23:17:07.669Z,0.32
2022-12-01T23:19:36.108Z,0.57
2022-12-01T23:22:04.113Z,0.55
2022-12-01T23:24:34.035Z,0.57
2022-12-01T23:27:02.345Z,0.25
2022-12-01T23:29:30.732Z,0.38
2022-12-01T23:32:00.205Z,0.59
2022-12-01T23:34:30.179Z,0.56
2022-12-01T23:36:58.197Z,0.55
2022-12-01T23:39:33.942Z,0.26
2022-12-01T23:42:03.724Z,0.37
2022-12-01T23:44:41.000Z,0.63
2022-12-01T23:47:17.892Z,0.29
2022-12-01T23:49:47.552Z,0.68
2022-12-01T23:52:20.623Z,0.66
2022-12-01T23:54:49.518Z,0.57
2022-12-01T23:57:21.755Z,0.57
2022-12-01T23:59:50.704Z,0.62
